createdAt,value
2022-12-03T00:01:13.469Z,46.85
2022-12-03T00:04:15.414Z,42.88
2022-12-03T00:07:17.373Z,42.70
2022-12-03T00:10:19.673Z,42.45
2022-12-03T00:13:21.625Z,43.33
2022-12-03T00:16:23.782Z,45.58
2022-12-03T00:19:25.936Z,43.78
2022-12-03T00:22:28.320Z,44.58
2022-12-03T00:25:30.339Z,43.55
2022-12-03T00:28:32.415Z,46.42
2022-12-03T00:31:34.459Z,42.70
2022-12-03T00:34:36.500Z,42.67
2022-12-03T00:37:38.586Z,44.67
2022-12-03T00:40:41.188Z,44.42
2022-12-03T00:43:43.234Z,39.42
2022-12-03T00:46:45.300Z,39.28
2022-12-03T00:49:47.666Z,39.67
2022-12-03T00:52:50.026Z,39.38
2022-12-03T00:55:52.088Z,40.05
2022-12-03T00:58:54.221Z,39.95
2022-12-03T01:01:56.540Z,39.78
2022-12-03T01:04:58.750Z,40.25
2022-12-03T01:08:01.009Z,34.42
2022-12-03T01:11:03.387Z,37.90
2022-12-03T01:14:07.092Z,35.97
2022-12-03T01:17:12.390Z,35.90
2022-12-03T01:20:18.784Z,37.33
2022-12-03T01:23:20.945Z,34.75
2022-12-03T01:26:23.336Z,35.53
2022-12-03T01:29:25.557Z,36.42
2022-12-03T01:32:27.521Z,34.03
2022-12-03T01:35:29.581Z,38.78
2022-12-03T01:38:31.815Z,35.80
2022-12-03T01:41:35.720Z,36.40
2022-12-03T01:44:40.036Z,36.13
2022-12-03T01:47:42.110Z,30.58
2022-12-03T01:50:45.512Z,35.70
2022-12-03T01:53:47.834Z,37.45
2022-12-03T01:56:50.057Z,37.75
2022-12-03T01:59:53.928Z,40.85
2022-12-03T02:03:01.805Z,40.85
2022-12-03T02:06:04.034Z,41.05
2022-12-03T02:09:08.609Z,43.75
2022-12-03T02:12:10.959Z,49.38
2022-12-03T02:15:13.205Z,53.22
2022-12-03T02:18:15.433Z,49.13
2022-12-03T02:21:23.210Z,51.20
2022-12-03T02:24:51.748Z,59.33
2022-12-03T02:27:55.471Z,55.25
2022-12-03T02:30:57.611Z,53.60
2022-12-03T02:33:59.659Z,58.53
2022-12-03T02:37:03.212Z,50.30
2022-12-03T02:40:10.466Z,48.65
2022-12-03T02:43:15.006Z,49.35
2022-12-03T02:46:17.093Z,50.55
2022-12-03T02:49:19.278Z,51.83
2022-12-03T02:52:21.845Z,49.90
2022-12-03T02:55:25.391Z,51.03
2022-12-03T02:58:30.831Z,46.13
2022-12-03T03:01:34.938Z,50.53
2022-12-03T03:04:37.405Z,51.25
2022-12-03T03:07:40.681Z,50.75
2022-12-03T03:10:43.843Z,50.30
2022-12-03T03:13:46.479Z,47.85
2022-12-03T03:16:55.983Z,49.08
2022-12-03T03:23:26.544Z,46.92
2022-12-03T03:26:28.647Z,50.83
2022-12-03T03:29:32.231Z,53.33
2022-12-03T03:32:34.880Z,48.75
2022-12-03T03:35:37.876Z,47.50
2022-12-03T03:38:40.891Z,43.95
2022-12-03T03:41:45.309Z,47.75
2022-12-03T03:44:48.207Z,47.63
2022-12-03T03:47:50.259Z,44.42
2022-12-03T03:50:52.570Z,45.83
2022-12-03T03:53:54.963Z,45.17
2022-12-03T03:56:57.412Z,47.28
2022-12-03T04:00:00.039Z,45.97
2022-12-03T04:03:04.034Z,48.13
2022-12-03T04:06:06.504Z,47.22
2022-12-03T04:09:08.462Z,48.72
2022-12-03T04:12:31.433Z,43.72
2022-12-03T04:15:33.735Z,49.00
2022-12-03T04:18:44.997Z,48.58
2022-12-03T04:22:05.542Z,43.90
2022-12-03T04:28:48.645Z,46.92
2022-12-03T04:32:09.647Z,47.70
2022-12-03T04:35:30.479Z,49.38
2022-12-03T04:38:32.621Z,42.67
2022-12-03T04:41:34.744Z,43.53
2022-12-03T04:44:36.804Z,48.63
2022-12-03T04:47:40.140Z,47.88
2022-12-03T04:50:42.312Z,45.13
2022-12-03T04:53:46.350Z,47.08
2022-12-03T04:56:48.559Z,43.70
2022-12-03T04:59:50.546Z,49.80
2022-12-03T05:02:52.792Z,48.47
2022-12-03T05:05:54.861Z,47.75
2022-12-03T05:08:56.884Z,48.00
2022-12-03T05:11:58.996Z,48.88
2022-12-03T05:15:01.743Z,51.65
2022-12-03T05:18:03.815Z,49.90
2022-12-03T05:21:05.933Z,48.53
2022-12-03T05:24:08.012Z,54.45
2022-12-03T05:27:09.994Z,49.00
2022-12-03T05:30:12.495Z,50.75
2022-12-03T05:33:14.726Z,53.15
2022-12-03T05:36:16.736Z,49.35
2022-12-03T05:39:18.716Z,49.25
2022-12-03T05:42:39.425Z,51.72
2022-12-03T05:45:43.075Z,49.63
2022-12-03T05:48:48.357Z,49.22
2022-12-03T05:51:53.726Z,46.97
2022-12-03T05:58:02.108Z,48.47
2022-12-03T06:01:04.765Z,47.13
2022-12-03T06:04:06.917Z,48.22
2022-12-03T06:07:13.816Z,49.20
2022-12-03T06:10:20.441Z,49.28
2022-12-03T06:13:22.385Z,50.30
2022-12-03T06:16:24.445Z,46.38
2022-12-03T06:19:26.496Z,50.33
2022-12-03T06:22:28.789Z,45.78
2022-12-03T06:25:30.871Z,48.42
2022-12-03T06:28:32.938Z,52.55
2022-12-03T06:31:34.981Z,52.72
2022-12-03T06:34:37.094Z,57.10
2022-12-03T06:37:39.149Z,57.40
2022-12-03T06:40:41.157Z,54.28
2022-12-03T06:43:43.284Z,61.03
2022-12-03T06:46:45.492Z,58.83
2022-12-03T06:49:47.684Z,53.90
2022-12-03T06:52:49.734Z,70.40
2022-12-03T06:55:51.681Z,69.55
2022-12-03T06:58:54.058Z,60.65
2022-12-03T07:01:56.086Z,56.85
2022-12-03T07:04:58.926Z,61.78
2022-12-03T07:08:01.170Z,60.92
2022-12-03T07:11:03.241Z,62.13
2022-12-03T07:14:07.084Z,59.33
2022-12-03T07:17:09.127Z,59.75
2022-12-03T07:20:11.679Z,56.83
2022-12-03T07:23:13.690Z,59.95
2022-12-03T07:26:15.745Z,55.50
2022-12-03T07:29:17.833Z,55.35
2022-12-03T07:32:19.852Z,54.42
2022-12-03T07:35:22.107Z,53.08
2022-12-03T07:38:24.084Z,58.80
2022-12-03T07:41:26.106Z,53.13
2022-12-03T07:44:28.496Z,52.65
2022-12-03T07:47:30.582Z,58.95
2022-12-03T07:50:32.680Z,51.42
2022-12-03T07:53:36.222Z,55.33
2022-12-03T07:56:38.204Z,56.15
2022-12-03T07:59:40.180Z,59.13
2022-12-03T08:02:42.464Z,56.08
2022-12-03T08:05:44.548Z,52.75
2022-12-03T08:08:46.935Z,56.83
2022-12-03T08:11:49.613Z,60.78
2022-12-03T08:14:52.004Z,58.92
2022-12-03T08:17:59.100Z,56.50
2022-12-03T08:21:01.090Z,59.78
2022-12-03T08:24:19.569Z,59.97
2022-12-03T08:27:23.899Z,66.10
2022-12-03T08:30:26.104Z,61.75
2022-12-03T08:33:33.621Z,67.82
2022-12-03T08:36:36.505Z,66.85
2022-12-03T08:39:45.923Z,62.20
2022-12-03T08:42:48.047Z,65.90
2022-12-03T08:45:52.184Z,68.43
2022-12-03T08:48:54.382Z,61.50
2022-12-03T08:52:00.487Z,57.67
2022-12-03T08:55:30.970Z,59.67
2022-12-03T08:58:48.012Z,60.65
2022-12-03T09:01:51.539Z,61.70
2022-12-03T09:04:54.863Z,64.57
2022-12-03T09:07:57.248Z,58.50
2022-12-03T09:10:59.237Z,59.22
2022-12-03T09:14:01.271Z,58.30
2022-12-03T09:17:03.734Z,57.00
2022-12-03T09:20:06.515Z,57.53
2022-12-03T09:23:08.903Z,54.67
2022-12-03T09:26:10.891Z,59.88
2022-12-03T09:29:13.526Z,57.20
2022-12-03T09:32:18.549Z,57.58
2022-12-03T09:35:20.983Z,58.03
2022-12-03T09:38:22.953Z,80.93
2022-12-03T09:41:26.199Z,62.67
2022-12-03T09:44:33.617Z,75.63
2022-12-03T09:47:35.658Z,58.20
2022-12-03T09:50:40.939Z,57.92
2022-12-03T09:53:43.071Z,60.67
2022-12-03T09:56:45.048Z,54.70
2022-12-03T09:59:47.641Z,60.78
2022-12-03T10:02:52.204Z,57.28
2022-12-03T10:05:54.977Z,59.15
2022-12-03T10:08:57.460Z,60.40
2022-12-03T10:12:00.179Z,56.60
2022-12-03T10:15:02.320Z,62.78
2022-12-03T10:18:19.411Z,63.58
2022-12-03T10:21:32.853Z,60.53
2022-12-03T10:24:36.248Z,60.22
2022-12-03T10:27:39.190Z,62.58
2022-12-03T10:30:55.424Z,59.67
2022-12-03T10:33:58.432Z,57.85
2022-12-03T10:37:14.203Z,58.33
2022-12-03T10:40:25.677Z,54.90
2022-12-03T10:43:27.675Z,54.90
2022-12-03T10:46:29.794Z,56.88
2022-12-03T10:49:31.910Z,52.55
2022-12-03T10:52:33.996Z,55.75
2022-12-03T10:55:39.791Z,49.90
2022-12-03T10:58:42.498Z,68.80
2022-12-03T11:01:45.162Z,68.80
2022-12-03T11:04:47.752Z,72.22
2022-12-03T11:07:50.140Z,75.20
2022-12-03T11:11:16.950Z,72.78
2022-12-03T11:14:56.844Z,80.43
2022-12-03T11:17:59.415Z,69.10
2022-12-03T11:21:16.654Z,68.95
2022-12-03T11:24:20.835Z,71.13
2022-12-03T11:27:22.890Z,73.50
2022-12-03T11:30:50.900Z,73.60
2022-12-03T11:34:18.622Z,67.30
2022-12-03T11:37:20.618Z,75.85
2022-12-03T11:40:22.595Z,78.25
2022-12-03T11:43:52.372Z,72.93
2022-12-03T11:46:55.661Z,73.10
2022-12-03T11:49:58.101Z,76.03
2022-12-03T11:53:01.997Z,73.75
2022-12-03T11:56:09.189Z,71.55
2022-12-03T11:59:12.914Z,72.28
2022-12-03T12:02:21.288Z,71.95
2022-12-03T12:05:29.740Z,74.43
2022-12-03T12:08:33.259Z,69.25
2022-12-03T12:11:37.529Z,79.13
2022-12-03T12:14:39.534Z,77.05
2022-12-03T12:17:41.554Z,78.07
2022-12-03T12:20:43.568Z,68.88
2022-12-03T12:23:45.632Z,73.30
2022-12-03T12:26:51.617Z,68.07
2022-12-03T12:29:59.489Z,61.25
2022-12-03T12:33:11.288Z,70.55
2022-12-03T12:36:13.365Z,61.53
2022-12-03T12:39:16.217Z,66.40
2022-12-03T12:42:31.823Z,70.68
2022-12-03T12:45:36.570Z,69.47
2022-12-03T12:48:39.393Z,63.70
2022-12-03T12:51:45.349Z,65.68
2022-12-03T12:54:47.400Z,65.45
2022-12-03T12:57:49.414Z,64.10
2022-12-03T13:00:54.575Z,66.82
2022-12-03T13:03:57.206Z,69.88
2022-12-03T13:06:59.973Z,65.13
2022-12-03T13:10:24.423Z,62.15
2022-12-03T13:13:43.965Z,63.88
2022-12-03T13:16:47.942Z,64.13
2022-12-03T13:19:58.190Z,70.45
2022-12-03T13:23:39.970Z,85.93
2022-12-03T13:26:41.982Z,72.55
2022-12-03T13:30:01.008Z,66.15
2022-12-03T13:33:16.035Z,59.35
2022-12-03T13:36:21.099Z,62.13
2022-12-03T13:39:33.473Z,63.13
2022-12-03T13:42:39.471Z,61.28
2022-12-03T13:45:47.271Z,61.17
2022-12-03T13:48:49.381Z,63.10
2022-12-03T13:51:51.700Z,62.75
2022-12-03T13:54:56.213Z,64.63
2022-12-03T13:57:58.765Z,63.38
2022-12-03T14:01:01.005Z,58.97
2022-12-03T14:04:03.891Z,57.65
2022-12-03T14:07:06.311Z,68.63
2022-12-03T14:10:11.436Z,61.55
2022-12-03T14:13:13.443Z,61.10
2022-12-03T14:16:15.422Z,57.95
2022-12-03T14:19:17.627Z,58.63
2022-12-03T14:22:23.358Z,59.38
2022-12-03T14:25:25.404Z,61.25
2022-12-03T14:28:27.565Z,58.53
2022-12-03T14:31:30.248Z,63.35
2022-12-03T14:34:32.369Z,60.70
2022-12-03T14:37:34.378Z,60.97
2022-12-03T14:40:36.397Z,63.60
2022-12-03T14:43:38.476Z,65.25
2022-12-03T14:46:40.433Z,61.78
2022-12-03T14:49:42.808Z,61.25
2022-12-03T14:52:44.875Z,63.25
2022-12-03T14:55:48.212Z,62.25
2022-12-03T14:58:51.234Z,62.25
2022-12-03T15:01:53.909Z,66.00
2022-12-03T15:04:56.018Z,61.50
2022-12-03T15:07:58.116Z,66.65
2022-12-03T15:11:00.351Z,65.00
2022-12-03T15:14:02.355Z,57.38
2022-12-03T15:17:04.459Z,57.90
2022-12-03T15:20:07.311Z,62.28
2022-12-03T15:23:14.032Z,59.28
2022-12-03T15:26:16.397Z,67.07
2022-12-03T15:29:19.772Z,68.07
2022-12-03T15:32:22.107Z,63.42
2022-12-03T15:35:24.492Z,58.75
2022-12-03T15:38:26.639Z,63.55
2022-12-03T15:41:31.507Z,59.78
2022-12-03T15:44:33.556Z,61.40
2022-12-03T15:47:35.540Z,65.60
2022-12-03T15:50:40.241Z,66.22
2022-12-03T15:53:42.817Z,63.80
2022-12-03T15:56:44.891Z,58.92
2022-12-03T15:59:47.341Z,62.55
2022-12-03T16:02:53.087Z,66.50
2022-12-03T16:05:55.359Z,61.28
2022-12-03T16:08:57.445Z,63.33
2022-12-03T16:11:59.501Z,67.63
2022-12-03T16:15:01.444Z,59.75
2022-12-03T16:18:03.824Z,61.13
2022-12-03T16:21:05.885Z,66.72
2022-12-03T16:24:07.983Z,67.28
2022-12-03T16:27:10.026Z,67.22
2022-12-03T16:30:12.644Z,65.10
2022-12-03T16:33:14.696Z,78.25
2022-12-03T16:36:16.821Z,88.00
2022-12-03T16:39:19.728Z,90.95
2022-12-03T16:42:22.612Z,91.78
2022-12-03T16:45:51.637Z,84.15
2022-12-03T16:48:56.527Z,85.00
2022-12-03T16:51:58.996Z,80.47
2022-12-03T16:55:01.592Z,81.63
2022-12-03T16:58:03.853Z,73.30
2022-12-03T17:01:06.731Z,83.68
2022-12-03T17:04:08.874Z,86.22
2022-12-03T17:07:11.214Z,74.72
2022-12-03T17:10:13.454Z,71.53
2022-12-03T17:13:15.736Z,78.15
2022-12-03T17:16:17.814Z,75.32
2022-12-03T17:19:19.838Z,82.93
2022-12-03T17:22:21.913Z,81.00
2022-12-03T17:25:25.510Z,94.38
2022-12-03T17:28:27.647Z,143.10
2022-12-03T17:31:29.804Z,113.05
2022-12-03T17:34:31.941Z,93.35
2022-12-03T17:37:34.441Z,76.13
2022-12-03T17:40:36.467Z,83.13
2022-12-03T17:43:38.456Z,71.07
2022-12-03T17:46:40.692Z,65.13
2022-12-03T17:49:42.827Z,63.00
2022-12-03T17:52:44.881Z,68.25
2022-12-03T17:55:47.076Z,62.28
2022-12-03T17:58:49.158Z,71.55
2022-12-03T18:01:51.823Z,72.78
2022-12-03T18:04:54.176Z,65.35
2022-12-03T18:07:56.364Z,69.85
2022-12-03T18:10:58.521Z,62.17
2022-12-03T18:14:01.445Z,68.25
2022-12-03T18:17:03.600Z,67.72
2022-12-03T18:20:06.637Z,65.18
2022-12-03T18:23:08.812Z,80.60
2022-12-03T18:26:11.250Z,74.32
2022-12-03T18:29:13.288Z,64.05
2022-12-03T18:32:28.164Z,68.15
2022-12-03T18:35:31.735Z,71.07
2022-12-03T18:38:34.371Z,71.30
2022-12-03T18:41:37.259Z,68.05
2022-12-03T18:44:42.684Z,74.55
2022-12-03T18:47:47.781Z,71.07
2022-12-03T18:50:50.455Z,79.72
2022-12-03T18:53:52.638Z,75.10
2022-12-03T18:56:54.692Z,77.22
2022-12-03T18:59:57.743Z,79.40
2022-12-03T19:03:04.414Z,74.13
2022-12-03T19:06:18.606Z,67.60
2022-12-03T19:09:21.359Z,73.80
2022-12-03T19:12:24.166Z,70.25
2022-12-03T19:15:26.583Z,73.85
2022-12-03T19:18:29.610Z,76.22
2022-12-03T19:21:33.829Z,75.60
2022-12-03T19:24:36.201Z,79.85
2022-12-03T19:27:38.235Z,82.75
2022-12-03T19:30:40.719Z,90.10
2022-12-03T19:33:44.127Z,77.90
2022-12-03T19:36:47.526Z,71.32
2022-12-03T19:39:58.543Z,68.18
2022-12-03T19:43:00.909Z,71.13
2022-12-03T19:46:22.037Z,70.95
2022-12-03T19:49:25.349Z,73.70
2022-12-03T19:52:30.961Z,69.18
2022-12-03T19:55:35.412Z,73.78
2022-12-03T19:58:39.255Z,72.90
2022-12-03T20:01:43.291Z,71.97
2022-12-03T20:04:45.934Z,68.68
2022-12-03T20:07:48.584Z,78.20
2022-12-03T20:10:51.057Z,77.90
2022-12-03T20:13:56.079Z,69.40
2022-12-03T20:16:58.649Z,70.03
2022-12-03T20:20:01.157Z,74.85
2022-12-03T20:23:03.740Z,72.38
2022-12-03T20:26:10.972Z,77.10
2022-12-03T20:29:14.338Z,80.45
2022-12-03T20:32:16.845Z,71.85
2022-12-03T20:35:19.429Z,80.95
2022-12-03T20:38:22.977Z,77.45
2022-12-03T20:41:25.473Z,81.38
2022-12-03T20:44:28.056Z,91.85
2022-12-03T20:47:30.473Z,79.75
2022-12-03T20:50:33.511Z,74.43
2022-12-03T20:53:37.442Z,80.00
2022-12-03T20:56:39.979Z,81.72
2022-12-03T20:59:42.592Z,86.60
2022-12-03T21:02:45.620Z,95.32
2022-12-03T21:05:48.435Z,90.55
2022-12-03T21:08:53.674Z,82.32
2022-12-03T21:11:56.172Z,76.50
2022-12-03T21:14:58.805Z,78.45
2022-12-03T21:18:01.041Z,79.82
2022-12-03T21:21:03.559Z,75.25
2022-12-03T21:24:06.016Z,73.47
2022-12-03T21:27:08.130Z,73.07
2022-12-03T21:30:10.462Z,77.75
2022-12-03T21:33:12.876Z,77.63
2022-12-03T21:36:16.914Z,72.75
2022-12-03T21:39:19.423Z,74.78
2022-12-03T21:42:36.534Z,69.00
2022-12-03T21:45:42.894Z,69.45
2022-12-03T21:48:45.549Z,73.13
2022-12-03T21:51:47.931Z,67.40
2022-12-03T21:54:52.616Z,73.65
2022-12-03T21:57:54.574Z,77.60
2022-12-03T22:00:56.676Z,74.95
2022-12-03T22:03:58.692Z,71.95
2022-12-03T22:07:00.675Z,75.53
2022-12-03T22:10:04.310Z,71.75
2022-12-03T22:13:06.503Z,78.07
2022-12-03T22:16:11.171Z,80.90
2022-12-03T22:19:13.217Z,78.90
2022-12-03T22:22:15.207Z,78.88
2022-12-03T22:25:17.368Z,76.50
2022-12-03T22:28:19.371Z,81.35
2022-12-03T22:31:21.422Z,80.93
2022-12-03T22:34:23.560Z,75.53
2022-12-03T22:37:25.585Z,80.63
2022-12-03T22:40:27.688Z,78.47
2022-12-03T22:43:29.774Z,84.13
2022-12-03T22:46:31.975Z,82.07
2022-12-03T22:49:34.273Z,83.38
2022-12-03T22:52:36.325Z,82.20
2022-12-03T22:55:38.961Z,83.03
2022-12-03T22:58:41.280Z,81.80
2022-12-03T23:01:43.317Z,81.57
2022-12-03T23:04:45.603Z,78.55
2022-12-03T23:07:47.685Z,89.93
2022-12-03T23:10:52.338Z,91.25
2022-12-03T23:13:54.462Z,98.57
2022-12-03T23:16:56.474Z,93.72
2022-12-03T23:19:58.541Z,90.70
2022-12-03T23:23:00.644Z,96.93
2022-12-03T23:26:07.856Z,86.97
2022-12-03T23:29:10.416Z,93.50
2022-12-03T23:32:12.539Z,89.75
2022-12-03T23:35:14.781Z,93.07
2022-12-03T23:38:17.265Z,82.70
2022-12-03T23:41:21.138Z,86.25
2022-12-03T23:44:23.218Z,86.15
2022-12-03T23:47:25.289Z,85.45
2022-12-03T23:50:28.305Z,78.38
2022-12-03T23:53:30.329Z,82.32
2022-12-03T23:56:32.514Z,81.22
2022-12-03T23:59:34.744Z,81.97
